aviador You're here:

OIKQ Decoded Metar

GHESHM I. in IRAN
Report Time2017-08-24 08:00:00
UTC Time2017-08-24 08:50:37
Flight Rules vfr VFR
Wind060° at 08 kt
W.Decomp.*RWY 05: 7.9 kt HW 1.4 kt RCW
W.Rank060° ranks 5
Current wind is below 060° avg. (9.3)
Visibility8000 m
Phenomena:N/A
Clouds:N/A
Expected CloudBase > 4,400 ft AGL from Temp-Dew spread
CeilingNone
Temp37°C (ISA +22)
Dew Point26°C (53% RH)
Heat Index47.4°C
QNH1003 hPa
Density Alt3,310 ft
Elevation39 ft
Report Wrong Elevation
Raw Report
METAR OIKQ 240800Z 06008KT 8000 NSC 37/26 Q1003=

Extra information for OIKQ:More info

Metar Taf Metar & Taf Last 4 Metars F.Rules Stats Wind Profile Meteogram Temp Stats Airport Information Weather charts Add Link Nearby VenuesMetar ALERT Operation Metar Decoded Social comments